sensor_id;sensor_type;location;lat;lon;timestamp;P1;durP1;ratioP1;P2;durP2;ratioP2
9997;SDS011;5038;53.064;8.624;2022-12-08T00:01:31;8.30;;;6.70;;
9997;SDS011;5038;53.064;8.624;2022-12-08T00:04:02;9.00;;;7.20;;
9997;SDS011;5038;53.064;8.624;2022-12-08T00:06:33;12.50;;;7.33;;
9997;SDS011;5038;53.064;8.624;2022-12-08T00:09:20;8.67;;;6.80;;
9997;SDS011;5038;53.064;8.624;2022-12-08T00:11:51;10.33;;;7.23;;
9997;SDS011;5038;53.064;8.624;2022-12-08T00:14:22;10.80;;;7.03;;
9997;SDS011;5038;53.064;8.624;2022-12-08T00:16:51;7.50;;;6.70;;
9997;SDS011;5038;53.064;8.624;2022-12-08T00:19:21;11.13;;;7.13;;
9997;SDS011;5038;53.064;8.624;2022-12-08T00:21:51;18.17;;;7.13;;
9997;SDS011;5038;53.064;8.624;2022-12-08T00:24:20;9.83;;;7.13;;
9997;SDS011;5038;53.064;8.624;2022-12-08T00:26:49;14.20;;;6.90;;
9997;SDS011;5038;53.064;8.624;2022-12-08T00:29:17;9.97;;;8.23;;
9997;SDS011;5038;53.064;8.624;2022-12-08T00:31:45;11.20;;;10.00;;
9997;SDS011;5038;53.064;8.624;2022-12-08T00:34:14;10.87;;;9.73;;
9997;SDS011;5038;53.064;8.624;2022-12-08T00:36:42;12.10;;;9.93;;
9997;SDS011;5038;53.064;8.624;2022-12-08T00:39:12;11.73;;;10.50;;
9997;SDS011;5038;53.064;8.624;2022-12-08T00:41:41;11.47;;;10.30;;
9997;SDS011;5038;53.064;8.624;2022-12-08T00:44:27;12.33;;;10.37;;
9997;SDS011;5038;53.064;8.624;2022-12-08T00:46:56;12.03;;;9.13;;
9997;SDS011;5038;53.064;8.624;2022-12-08T00:49:24;12.47;;;10.33;;
9997;SDS011;5038;53.064;8.624;2022-12-08T00:51:52;10.57;;;9.30;;
9997;SDS011;5038;53.064;8.624;2022-12-08T00:54:22;13.20;;;10.40;;
9997;SDS011;5038;53.064;8.624;2022-12-08T00:56:50;11.20;;;9.73;;
9997;SDS011;5038;53.064;8.624;2022-12-08T00:59:18;11.43;;;9.67;;
9997;SDS011;5038;53.064;8.624;2022-12-08T01:01:46;10.00;;;9.07;;
9997;SDS011;5038;53.064;8.624;2022-12-08T01:04:15;10.50;;;8.20;;
9997;SDS011;5038;53.064;8.624;2022-12-08T01:06:45;12.20;;;8.43;;
9997;SDS011;5038;53.064;8.624;2022-12-08T01:09:14;14.43;;;8.50;;
9997;SDS011;5038;53.064;8.624;2022-12-08T01:11:47;10.87;;;7.60;;
9997;SDS011;5038;53.064;8.624;2022-12-08T01:14:15;9.50;;;8.10;;
9997;SDS011;5038;53.064;8.624;2022-12-08T01:16:44;9.17;;;8.27;;
9997;SDS011;5038;53.064;8.624;2022-12-08T01:19:13;10.20;;;8.00;;
9997;SDS011;5038;53.064;8.624;2022-12-08T01:21:43;10.63;;;8.00;;
9997;SDS011;5038;53.064;8.624;2022-12-08T01:24:12;11.73;;;8.03;;
9997;SDS011;5038;53.064;8.624;2022-12-08T01:26:42;10.53;;;7.90;;
9997;SDS011;5038;53.064;8.624;2022-12-08T01:29:12;9.40;;;7.50;;
9997;SDS011;5038;53.064;8.624;2022-12-08T01:31:41;9.20;;;7.80;;
9997;SDS011;5038;53.064;8.624;2022-12-08T01:34:09;10.70;;;7.77;;
9997;SDS011;5038;53.064;8.624;2022-12-08T01:36:38;8.67;;;7.53;;
9997;SDS011;5038;53.064;8.624;2022-12-08T01:39:09;8.20;;;7.40;;
9997;SDS011;5038;53.064;8.624;2022-12-08T01:41:44;7.67;;;6.87;;
9997;SDS011;5038;53.064;8.624;2022-12-08T01:47:21;9.30;;;7.00;;
9997;SDS011;5038;53.064;8.624;2022-12-08T01:49:51;10.80;;;8.50;;
9997;SDS011;5038;53.064;8.624;2022-12-08T01:52:20;9.20;;;7.63;;
9997;SDS011;5038;53.064;8.624;2022-12-08T01:54:53;8.83;;;6.80;;
9997;SDS011;5038;53.064;8.624;2022-12-08T01:57:25;8.33;;;7.17;;
9997;SDS011;5038;53.064;8.624;2022-12-08T02:00:00;9.97;;;7.20;;
9997;SDS011;5038;53.064;8.624;2022-12-08T02:02:34;8.93;;;6.40;;
9997;SDS011;5038;53.064;8.624;2022-12-08T02:05:09;8.47;;;7.17;;
9997;SDS011;5038;53.064;8.624;2022-12-08T02:07:38;11.10;;;7.83;;
9997;SDS011;5038;53.064;8.624;2022-12-08T02:10:07;8.13;;;7.33;;
9997;SDS011;5038;53.064;8.624;2022-12-08T02:12:36;9.00;;;7.23;;
9997;SDS011;5038;53.064;8.624;2022-12-08T02:15:06;10.13;;;7.30;;
9997;SDS011;5038;53.064;8.624;2022-12-08T02:17:39;7.57;;;6.77;;
9997;SDS011;5038;53.064;8.624;2022-12-08T02:20:24;8.97;;;7.20;;
9997;SDS011;5038;53.064;8.624;2022-12-08T02:23:06;10.43;;;7.07;;
9997;SDS011;5038;53.064;8.624;2022-12-08T02:25:45;7.77;;;6.00;;
9997;SDS011;5038;53.064;8.624;2022-12-08T02:28:37;15.40;;;6.90;;
9997;SDS011;5038;53.064;8.624;2022-12-08T02:31:23;12.53;;;6.10;;
9997;SDS011;5038;53.064;8.624;2022-12-08T02:34:08;7.57;;;6.00;;
9997;SDS011;5038;53.064;8.624;2022-12-08T02:36:47;8.83;;;6.40;;
9997;SDS011;5038;53.064;8.624;2022-12-08T02:39:23;9.80;;;6.03;;
9997;SDS011;5038;53.064;8.624;2022-12-08T02:41:57;10.63;;;6.27;;
9997;SDS011;5038;53.064;8.624;2022-12-08T02:44:34;9.07;;;6.40;;
9997;SDS011;5038;53.064;8.624;2022-12-08T02:47:07;9.13;;;6.60;;
9997;SDS011;5038;53.064;8.624;2022-12-08T02:49:39;11.67;;;6.70;;
9997;SDS011;5038;53.064;8.624;2022-12-08T02:55:08;9.37;;;6.40;;
9997;SDS011;5038;53.064;8.624;2022-12-08T02:57:44;8.23;;;6.43;;
9997;SDS011;5038;53.064;8.624;2022-12-08T03:00:23;11.30;;;6.40;;
9997;SDS011;5038;53.064;8.624;2022-12-08T03:02:56;8.10;;;5.80;;
9997;SDS011;5038;53.064;8.624;2022-12-08T03:05:40;8.37;;;5.97;;
9997;SDS011;5038;53.064;8.624;2022-12-08T03:08:23;8.67;;;6.07;;
9997;SDS011;5038;53.064;8.624;2022-12-08T03:11:00;6.63;;;5.37;;
9997;SDS011;5038;53.064;8.624;2022-12-08T03:13:32;7.90;;;5.70;;
9997;SDS011;5038;53.064;8.624;2022-12-08T03:16:05;8.47;;;5.00;;
9997;SDS011;5038;53.064;8.624;2022-12-08T03:18:37;6.37;;;4.47;;
9997;SDS011;5038;53.064;8.624;2022-12-08T03:21:11;7.37;;;5.20;;
9997;SDS011;5038;53.064;8.624;2022-12-08T03:23:41;7.53;;;4.50;;
9997;SDS011;5038;53.064;8.624;2022-12-08T03:26:14;7.37;;;5.60;;
9997;SDS011;5038;53.064;8.624;2022-12-08T03:28:46;7.07;;;4.50;;
9997;SDS011;5038;53.064;8.624;2022-12-08T03:31:14;6.70;;;4.40;;
9997;SDS011;5038;53.064;8.624;2022-12-08T03:33:45;4.90;;;4.07;;
9997;SDS011;5038;53.064;8.624;2022-12-08T03:36:19;5.17;;;4.20;;
9997;SDS011;5038;53.064;8.624;2022-12-08T03:38:49;5.57;;;4.47;;
9997;SDS011;5038;53.064;8.624;2022-12-08T03:41:19;7.27;;;4.70;;
9997;SDS011;5038;53.064;8.624;2022-12-08T03:43:48;6.30;;;4.67;;
9997;SDS011;5038;53.064;8.624;2022-12-08T03:46:17;7.00;;;4.80;;
9997;SDS011;5038;53.064;8.624;2022-12-08T03:48:48;8.70;;;5.23;;
9997;SDS011;5038;53.064;8.624;2022-12-08T03:51:18;7.63;;;5.33;;
9997;SDS011;5038;53.064;8.624;2022-12-08T03:53:47;6.90;;;4.77;;
9997;SDS011;5038;53.064;8.624;2022-12-08T03:56:18;7.13;;;4.83;;
9997;SDS011;5038;53.064;8.624;2022-12-08T03:58:48;6.30;;;5.10;;
9997;SDS011;5038;53.064;8.624;2022-12-08T04:01:17;6.47;;;5.10;;
9997;SDS011;5038;53.064;8.624;2022-12-08T04:03:45;10.70;;;5.33;;
9997;SDS011;5038;53.064;8.624;2022-12-08T04:06:13;5.47;;;4.67;;
9997;SDS011;5038;53.064;8.624;2022-12-08T04:08:44;6.33;;;4.60;;
9997;SDS011;5038;53.064;8.624;2022-12-08T04:11:12;7.50;;;5.43;;
9997;SDS011;5038;53.064;8.624;2022-12-08T04:13:40;6.13;;;5.13;;
9997;SDS011;5038;53.064;8.624;2022-12-08T04:16:12;8.60;;;5.20;;
9997;SDS011;5038;53.064;8.624;2022-12-08T04:18:42;6.17;;;5.47;;
9997;SDS011;5038;53.064;8.624;2022-12-08T04:21:10;6.40;;;5.37;;
9997;SDS011;5038;53.064;8.624;2022-12-08T04:23:39;9.57;;;5.60;;
9997;SDS011;5038;53.064;8.624;2022-12-08T04:26:09;8.50;;;5.90;;
9997;SDS011;5038;53.064;8.624;2022-12-08T04:28:37;9.10;;;5.73;;
9997;SDS011;5038;53.064;8.624;2022-12-08T04:31:05;7.43;;;6.73;;
9997;SDS011;5038;53.064;8.624;2022-12-08T04:33:34;8.50;;;6.30;;
9997;SDS011;5038;53.064;8.624;2022-12-08T04:36:02;6.17;;;5.50;;
9997;SDS011;5038;53.064;8.624;2022-12-08T04:38:31;6.30;;;5.70;;
9997;SDS011;5038;53.064;8.624;2022-12-08T04:41:00;7.87;;;5.77;;
9997;SDS011;5038;53.064;8.624;2022-12-08T04:43:29;6.37;;;5.77;;
9997;SDS011;5038;53.064;8.624;2022-12-08T04:45:57;6.47;;;5.50;;
9997;SDS011;5038;53.064;8.624;2022-12-08T04:48:25;7.50;;;5.97;;
9997;SDS011;5038;53.064;8.624;2022-12-08T04:50:53;7.47;;;6.50;;
9997;SDS011;5038;53.064;8.624;2022-12-08T04:53:21;6.80;;;6.20;;
9997;SDS011;5038;53.064;8.624;2022-12-08T04:55:51;7.30;;;5.80;;
9997;SDS011;5038;53.064;8.624;2022-12-08T04:58:20;8.83;;;6.57;;
9997;SDS011;5038;53.064;8.624;2022-12-08T05:00:50;7.90;;;6.60;;
9997;SDS011;5038;53.064;8.624;2022-12-08T05:03:18;8.70;;;7.27;;
9997;SDS011;5038;53.064;8.624;2022-12-08T05:05:53;9.10;;;7.07;;
9997;SDS011;5038;53.064;8.624;2022-12-08T05:08:22;8.27;;;7.47;;
9997;SDS011;5038;53.064;8.624;2022-12-08T05:10:50;8.30;;;7.13;;
9997;SDS011;5038;53.064;8.624;2022-12-08T05:13:18;8.53;;;7.73;;
9997;SDS011;5038;53.064;8.624;2022-12-08T05:15:46;7.97;;;7.27;;
9997;SDS011;5038;53.064;8.624;2022-12-08T05:18:16;7.73;;;7.00;;
9997;SDS011;5038;53.064;8.624;2022-12-08T05:20:44;7.43;;;6.83;;
9997;SDS011;5038;53.064;8.624;2022-12-08T05:23:12;8.00;;;7.30;;
9997;SDS011;5038;53.064;8.624;2022-12-08T05:25:40;9.70;;;7.40;;
9997;SDS011;5038;53.064;8.624;2022-12-08T05:28:08;7.30;;;6.70;;
9997;SDS011;5038;53.064;8.624;2022-12-08T05:30:56;8.50;;;7.60;;
9997;SDS011;5038;53.064;8.624;2022-12-08T05:33:25;7.87;;;7.07;;
9997;SDS011;5038;53.064;8.624;2022-12-08T05:35:53;8.33;;;7.40;;
9997;SDS011;5038;53.064;8.624;2022-12-08T05:38:22;8.83;;;8.03;;
9997;SDS011;5038;53.064;8.624;2022-12-08T05:40:50;8.90;;;8.10;;
9997;SDS011;5038;53.064;8.624;2022-12-08T05:43:18;8.87;;;7.97;;
9997;SDS011;5038;53.064;8.624;2022-12-08T05:45:46;8.17;;;7.37;;
9997;SDS011;5038;53.064;8.624;2022-12-08T05:48:14;9.53;;;8.57;;
9997;SDS011;5038;53.064;8.624;2022-12-08T05:50:46;9.00;;;8.20;;
9997;SDS011;5038;53.064;8.624;2022-12-08T05:53:14;9.60;;;8.80;;
9997;SDS011;5038;53.064;8.624;2022-12-08T05:55:43;9.97;;;9.00;;
9997;SDS011;5038;53.064;8.624;2022-12-08T05:58:12;8.87;;;7.80;;
9997;SDS011;5038;53.064;8.624;2022-12-08T06:00:41;8.90;;;8.00;;
9997;SDS011;5038;53.064;8.624;2022-12-08T06:03:10;9.23;;;8.33;;
9997;SDS011;5038;53.064;8.624;2022-12-08T06:05:39;8.63;;;7.83;;
9997;SDS011;5038;53.064;8.624;2022-12-08T06:08:09;9.40;;;8.50;;
9997;SDS011;5038;53.064;8.624;2022-12-08T06:10:38;8.53;;;7.70;;
9997;SDS011;5038;53.064;8.624;2022-12-08T06:13:07;8.97;;;8.07;;
9997;SDS011;5038;53.064;8.624;2022-12-08T06:15:35;8.20;;;7.50;;
9997;SDS011;5038;53.064;8.624;2022-12-08T06:18:04;7.90;;;6.70;;
9997;SDS011;5038;53.064;8.624;2022-12-08T06:20:33;8.20;;;7.40;;
9997;SDS011;5038;53.064;8.624;2022-12-08T06:23:01;6.50;;;5.70;;
9997;SDS011;5038;53.064;8.624;2022-12-08T06:25:30;7.40;;;6.70;;
9997;SDS011;5038;53.064;8.624;2022-12-08T06:27:58;7.03;;;5.90;;
9997;SDS011;5038;53.064;8.624;2022-12-08T06:30:27;6.50;;;5.80;;
9997;SDS011;5038;53.064;8.624;2022-12-08T06:32:55;8.03;;;7.13;;
9997;SDS011;5038;53.064;8.624;2022-12-08T06:35:23;8.33;;;6.80;;
9997;SDS011;5038;53.064;8.624;2022-12-08T06:37:51;8.20;;;7.50;;
9997;SDS011;5038;53.064;8.624;2022-12-08T06:40:19;6.73;;;6.03;;
9997;SDS011;5038;53.064;8.624;2022-12-08T06:42:48;6.30;;;5.70;;
9997;SDS011;5038;53.064;8.624;2022-12-08T06:45:16;8.90;;;7.00;;
9997;SDS011;5038;53.064;8.624;2022-12-08T06:47:45;7.03;;;6.37;;
9997;SDS011;5038;53.064;8.624;2022-12-08T06:50:13;6.43;;;5.83;;
9997;SDS011;5038;53.064;8.624;2022-12-08T06:52:41;6.73;;;6.13;;
9997;SDS011;5038;53.064;8.624;2022-12-08T06:55:28;5.80;;;5.30;;
9997;SDS011;5038;53.064;8.624;2022-12-08T06:58:18;7.77;;;6.07;;
9997;SDS011;5038;53.064;8.624;2022-12-08T07:00:46;7.10;;;6.40;;
9997;SDS011;5038;53.064;8.624;2022-12-08T07:03:14;6.50;;;5.67;;
9997;SDS011;5038;53.064;8.624;2022-12-08T07:05:42;7.03;;;6.33;;
9997;SDS011;5038;53.064;8.624;2022-12-08T07:08:10;7.20;;;6.50;;
9997;SDS011;5038;53.064;8.624;2022-12-08T07:10:38;8.97;;;6.40;;
9997;SDS011;5038;53.064;8.624;2022-12-08T07:13:07;7.40;;;6.70;;
9997;SDS011;5038;53.064;8.624;2022-12-08T07:15:36;7.13;;;6.53;;
9997;SDS011;5038;53.064;8.624;2022-12-08T07:18:04;7.70;;;6.90;;
9997;SDS011;5038;53.064;8.624;2022-12-08T07:20:32;9.87;;;7.30;;
9997;SDS011;5038;53.064;8.624;2022-12-08T07:23:00;8.13;;;6.93;;
9997;SDS011;5038;53.064;8.624;2022-12-08T07:25:28;7.40;;;6.70;;
9997;SDS011;5038;53.064;8.624;2022-12-08T07:27:56;8.20;;;6.43;;
9997;SDS011;5038;53.064;8.624;2022-12-08T07:30:24;7.60;;;6.10;;
9997;SDS011;5038;53.064;8.624;2022-12-08T07:32:54;7.90;;;7.10;;
9997;SDS011;5038;53.064;8.624;2022-12-08T07:35:22;7.40;;;6.70;;
9997;SDS011;5038;53.064;8.624;2022-12-08T07:37:50;7.50;;;6.77;;
9997;SDS011;5038;53.064;8.624;2022-12-08T07:40:20;7.10;;;6.40;;
9997;SDS011;5038;53.064;8.624;2022-12-08T07:42:48;7.37;;;6.70;;
9997;SDS011;5038;53.064;8.624;2022-12-08T07:45:16;6.90;;;6.20;;
9997;SDS011;5038;53.064;8.624;2022-12-08T07:47:45;7.00;;;6.30;;
9997;SDS011;5038;53.064;8.624;2022-12-08T07:50:14;7.73;;;6.90;;
9997;SDS011;5038;53.064;8.624;2022-12-08T07:52:42;7.77;;;6.57;;
9997;SDS011;5038;53.064;8.624;2022-12-08T07:55:10;7.50;;;6.10;;
9997;SDS011;5038;53.064;8.624;2022-12-08T07:57:38;8.83;;;6.37;;
9997;SDS011;5038;53.064;8.624;2022-12-08T08:00:07;7.13;;;6.37;;
9997;SDS011;5038;53.064;8.624;2022-12-08T08:02:37;6.50;;;5.90;;
9997;SDS011;5038;53.064;8.624;2022-12-08T08:05:06;7.90;;;6.40;;
9997;SDS011;5038;53.064;8.624;2022-12-08T08:07:36;6.30;;;5.70;;
9997;SDS011;5038;53.064;8.624;2022-12-08T08:10:05;7.13;;;6.43;;
9997;SDS011;5038;53.064;8.624;2022-12-08T08:12:34;6.20;;;5.40;;
9997;SDS011;5038;53.064;8.624;2022-12-08T08:15:03;5.80;;;5.10;;
9997;SDS011;5038;53.064;8.624;2022-12-08T08:17:33;5.63;;;4.80;;
9997;SDS011;5038;53.064;8.624;2022-12-08T08:20:03;5.20;;;4.70;;
9997;SDS011;5038;53.064;8.624;2022-12-08T08:22:34;6.27;;;4.37;;
9997;SDS011;5038;53.064;8.624;2022-12-08T08:25:04;8.83;;;4.50;;
9997;SDS011;5038;53.064;8.624;2022-12-08T08:27:32;5.33;;;4.83;;
9997;SDS011;5038;53.064;8.624;2022-12-08T08:30:00;5.30;;;4.57;;
9997;SDS011;5038;53.064;8.624;2022-12-08T08:32:31;5.40;;;4.60;;
9997;SDS011;5038;53.064;8.624;2022-12-08T08:34:59;5.03;;;4.50;;
9997;SDS011;5038;53.064;8.624;2022-12-08T08:37:28;6.20;;;4.20;;
9997;SDS011;5038;53.064;8.624;2022-12-08T08:39:56;5.30;;;4.63;;
9997;SDS011;5038;53.064;8.624;2022-12-08T08:42:25;7.27;;;4.40;;
9997;SDS011;5038;53.064;8.624;2022-12-08T08:44:54;5.53;;;4.87;;
9997;SDS011;5038;53.064;8.624;2022-12-08T08:47:22;5.63;;;4.83;;
9997;SDS011;5038;53.064;8.624;2022-12-08T08:49:50;5.20;;;4.47;;
9997;SDS011;5038;53.064;8.624;2022-12-08T08:52:19;6.37;;;4.47;;
9997;SDS011;5038;53.064;8.624;2022-12-08T08:54:47;5.70;;;4.37;;
9997;SDS011;5038;53.064;8.624;2022-12-08T08:57:15;6.37;;;4.70;;
9997;SDS011;5038;53.064;8.624;2022-12-08T08:59:53;6.30;;;4.70;;
9997;SDS011;5038;53.064;8.624;2022-12-08T09:02:21;5.53;;;4.43;;
9997;SDS011;5038;53.064;8.624;2022-12-08T09:04:50;6.23;;;4.10;;
9997;SDS011;5038;53.064;8.624;2022-12-08T09:07:20;6.17;;;4.63;;
9997;SDS011;5038;53.064;8.624;2022-12-08T09:09:49;5.50;;;4.43;;
9997;SDS011;5038;53.064;8.624;2022-12-08T09:12:23;5.77;;;4.40;;
9997;SDS011;5038;53.064;8.624;2022-12-08T09:14:53;5.40;;;4.17;;
9997;SDS011;5038;53.064;8.624;2022-12-08T09:17:21;6.40;;;4.40;;
9997;SDS011;5038;53.064;8.624;2022-12-08T09:19:49;6.37;;;5.07;;
9997;SDS011;5038;53.064;8.624;2022-12-08T09:22:18;6.20;;;4.80;;
9997;SDS011;5038;53.064;8.624;2022-12-08T09:24:47;6.17;;;4.30;;
9997;SDS011;5038;53.064;8.624;2022-12-08T09:27:15;6.83;;;4.67;;
9997;SDS011;5038;53.064;8.624;2022-12-08T09:29:43;6.47;;;4.73;;
9997;SDS011;5038;53.064;8.624;2022-12-08T09:32:12;5.47;;;4.00;;
9997;SDS011;5038;53.064;8.624;2022-12-08T09:34:40;5.70;;;4.50;;
9997;SDS011;5038;53.064;8.624;2022-12-08T09:37:15;6.07;;;4.37;;
9997;SDS011;5038;53.064;8.624;2022-12-08T09:39:44;6.37;;;4.57;;
9997;SDS011;5038;53.064;8.624;2022-12-08T09:42:13;4.90;;;4.40;;
9997;SDS011;5038;53.064;8.624;2022-12-08T09:44:53;7.17;;;5.30;;
9997;SDS011;5038;53.064;8.624;2022-12-08T09:47:31;5.43;;;4.50;;
9997;SDS011;5038;53.064;8.624;2022-12-08T09:50:04;6.13;;;4.60;;
9997;SDS011;5038;53.064;8.624;2022-12-08T09:52:39;5.60;;;4.07;;
9997;SDS011;5038;53.064;8.624;2022-12-08T09:55:14;6.87;;;4.30;;
9997;SDS011;5038;53.064;8.624;2022-12-08T09:57:50;6.30;;;4.40;;
9997;SDS011;5038;53.064;8.624;2022-12-08T10:00:25;5.10;;;4.40;;
9997;SDS011;5038;53.064;8.624;2022-12-08T10:02:55;6.37;;;4.27;;
9997;SDS011;5038;53.064;8.624;2022-12-08T10:05:25;6.73;;;4.30;;
9997;SDS011;5038;53.064;8.624;2022-12-08T10:07:58;6.37;;;4.90;;
9997;SDS011;5038;53.064;8.624;2022-12-08T10:10:34;5.70;;;4.77;;
9997;SDS011;5038;53.064;8.624;2022-12-08T10:13:10;6.63;;;5.40;;
9997;SDS011;5038;53.064;8.624;2022-12-08T10:15:49;5.70;;;4.70;;
9997;SDS011;5038;53.064;8.624;2022-12-08T10:18:28;6.23;;;5.60;;
9997;SDS011;5038;53.064;8.624;2022-12-08T10:20:59;6.20;;;4.87;;
9997;SDS011;5038;53.064;8.624;2022-12-08T10:23:38;9.73;;;6.50;;
9997;SDS011;5038;53.064;8.624;2022-12-08T10:26:11;8.20;;;6.77;;
9997;SDS011;5038;53.064;8.624;2022-12-08T10:28:41;8.37;;;5.60;;
9997;SDS011;5038;53.064;8.624;2022-12-08T10:31:13;6.00;;;5.40;;
9997;SDS011;5038;53.064;8.624;2022-12-08T10:33:44;10.27;;;6.60;;
9997;SDS011;5038;53.064;8.624;2022-12-08T10:36:14;7.53;;;6.47;;
9997;SDS011;5038;53.064;8.624;2022-12-08T10:38:42;8.30;;;5.97;;
9997;SDS011;5038;53.064;8.624;2022-12-08T10:41:11;7.97;;;6.43;;
9997;SDS011;5038;53.064;8.624;2022-12-08T10:43:43;8.80;;;6.80;;
9997;SDS011;5038;53.064;8.624;2022-12-08T10:46:15;10.10;;;7.17;;
9997;SDS011;5038;53.064;8.624;2022-12-08T10:48:50;6.67;;;5.97;;
9997;SDS011;5038;53.064;8.624;2022-12-08T10:51:24;11.30;;;7.13;;
9997;SDS011;5038;53.064;8.624;2022-12-08T10:53:54;7.40;;;5.80;;
9997;SDS011;5038;53.064;8.624;2022-12-08T10:56:23;8.30;;;6.27;;
9997;SDS011;5038;53.064;8.624;2022-12-08T10:59:04;9.03;;;7.20;;
9997;SDS011;5038;53.064;8.624;2022-12-08T11:01:44;8.33;;;6.37;;
9997;SDS011;5038;53.064;8.624;2022-12-08T11:04:16;6.43;;;4.70;;
9997;SDS011;5038;53.064;8.624;2022-12-08T11:06:46;8.27;;;5.50;;
9997;SDS011;5038;53.064;8.624;2022-12-08T11:09:31;6.17;;;5.50;;
9997;SDS011;5038;53.064;8.624;2022-12-08T11:12:06;7.73;;;5.07;;
9997;SDS011;5038;53.064;8.624;2022-12-08T11:14:45;6.17;;;4.73;;
9997;SDS011;5038;53.064;8.624;2022-12-08T11:17:16;6.80;;;5.00;;
9997;SDS011;5038;53.064;8.624;2022-12-08T11:19:57;5.83;;;3.90;;
9997;SDS011;5038;53.064;8.624;2022-12-08T11:22:29;6.60;;;4.50;;
9997;SDS011;5038;53.064;8.624;2022-12-08T11:24:59;4.77;;;4.03;;
9997;SDS011;5038;53.064;8.624;2022-12-08T11:27:36;6.63;;;4.20;;
9997;SDS011;5038;53.064;8.624;2022-12-08T11:30:11;7.33;;;3.47;;
9997;SDS011;5038;53.064;8.624;2022-12-08T11:32:42;5.47;;;4.10;;
9997;SDS011;5038;53.064;8.624;2022-12-08T11:35:16;5.93;;;3.80;;
9997;SDS011;5038;53.064;8.624;2022-12-08T11:37:49;6.13;;;3.87;;
9997;SDS011;5038;53.064;8.624;2022-12-08T11:40:19;6.47;;;3.80;;
9997;SDS011;5038;53.064;8.624;2022-12-08T11:42:53;5.60;;;4.30;;
9997;SDS011;5038;53.064;8.624;2022-12-08T11:45:29;4.73;;;3.77;;
9997;SDS011;5038;53.064;8.624;2022-12-08T11:48:04;5.80;;;3.53;;
9997;SDS011;5038;53.064;8.624;2022-12-08T11:50:41;5.83;;;4.00;;
9997;SDS011;5038;53.064;8.624;2022-12-08T11:53:13;5.87;;;3.77;;
9997;SDS011;5038;53.064;8.624;2022-12-08T11:55:52;4.97;;;3.73;;
9997;SDS011;5038;53.064;8.624;2022-12-08T11:58:25;5.53;;;4.30;;
9997;SDS011;5038;53.064;8.624;2022-12-08T12:00:59;7.83;;;3.87;;
9997;SDS011;5038;53.064;8.624;2022-12-08T12:03:28;5.83;;;4.47;;
9997;SDS011;5038;53.064;8.624;2022-12-08T12:09:27;5.50;;;3.97;;
9997;SDS011;5038;53.064;8.624;2022-12-08T12:12:05;4.90;;;4.03;;
9997;SDS011;5038;53.064;8.624;2022-12-08T12:14:45;5.67;;;3.93;;
9997;SDS011;5038;53.064;8.624;2022-12-08T12:17:37;6.53;;;5.13;;
9997;SDS011;5038;53.064;8.624;2022-12-08T12:20:11;5.90;;;4.03;;
9997;SDS011;5038;53.064;8.624;2022-12-08T12:22:47;6.70;;;4.27;;
9997;SDS011;5038;53.064;8.624;2022-12-08T12:25:18;5.27;;;4.10;;
9997;SDS011;5038;53.064;8.624;2022-12-08T12:27:48;5.90;;;4.70;;
9997;SDS011;5038;53.064;8.624;2022-12-08T12:30:23;5.50;;;4.20;;
9997;SDS011;5038;53.064;8.624;2022-12-08T12:32:53;6.33;;;4.10;;
9997;SDS011;5038;53.064;8.624;2022-12-08T12:35:26;8.90;;;3.90;;
9997;SDS011;5038;53.064;8.624;2022-12-08T12:38:02;6.90;;;4.10;;
9997;SDS011;5038;53.064;8.624;2022-12-08T12:40:56;6.20;;;4.93;;
9997;SDS011;5038;53.064;8.624;2022-12-08T12:43:28;6.43;;;4.37;;
9997;SDS011;5038;53.064;8.624;2022-12-08T12:55:24;7.00;;;3.80;;
9997;SDS011;5038;53.064;8.624;2022-12-08T12:58:18;4.47;;;3.10;;
9997;SDS011;5038;53.064;8.624;2022-12-08T13:04:08;7.40;;;3.70;;
9997;SDS011;5038;53.064;8.624;2022-12-08T13:06:38;4.97;;;3.20;;
9997;SDS011;5038;53.064;8.624;2022-12-08T13:09:17;6.17;;;4.47;;
9997;SDS011;5038;53.064;8.624;2022-12-08T13:11:54;6.23;;;4.07;;
9997;SDS011;5038;53.064;8.624;2022-12-08T13:14:25;6.40;;;4.10;;
9997;SDS011;5038;53.064;8.624;2022-12-08T13:17:01;5.00;;;3.73;;
9997;SDS011;5038;53.064;8.624;2022-12-08T13:19:34;6.33;;;4.10;;
9997;SDS011;5038;53.064;8.624;2022-12-08T13:28:18;5.77;;;3.57;;
9997;SDS011;5038;53.064;8.624;2022-12-08T13:30:48;7.70;;;3.67;;
9997;SDS011;5038;53.064;8.624;2022-12-08T13:33:20;6.23;;;3.93;;
9997;SDS011;5038;53.064;8.624;2022-12-08T13:35:55;7.37;;;4.63;;
9997;SDS011;5038;53.064;8.624;2022-12-08T13:38:30;7.17;;;4.13;;
9997;SDS011;5038;53.064;8.624;2022-12-08T13:41:02;8.50;;;4.80;;
9997;SDS011;5038;53.064;8.624;2022-12-08T13:43:40;6.70;;;4.63;;
9997;SDS011;5038;53.064;8.624;2022-12-08T13:46:35;5.60;;;4.10;;
9997;SDS011;5038;53.064;8.624;2022-12-08T13:49:31;6.17;;;4.67;;
9997;SDS011;5038;53.064;8.624;2022-12-08T13:52:26;6.80;;;4.73;;
9997;SDS011;5038;53.064;8.624;2022-12-08T13:55:20;8.87;;;5.60;;
9997;SDS011;5038;53.064;8.624;2022-12-08T13:58:17;7.10;;;4.73;;
9997;SDS011;5038;53.064;8.624;2022-12-08T14:00:55;6.40;;;4.63;;
9997;SDS011;5038;53.064;8.624;2022-12-08T14:03:28;6.20;;;4.87;;
9997;SDS011;5038;53.064;8.624;2022-12-08T14:05:56;5.73;;;4.93;;
9997;SDS011;5038;53.064;8.624;2022-12-08T14:08:41;6.57;;;4.90;;
9997;SDS011;5038;53.064;8.624;2022-12-08T14:11:34;7.30;;;5.50;;
9997;SDS011;5038;53.064;8.624;2022-12-08T14:14:05;7.30;;;5.67;;
9997;SDS011;5038;53.064;8.624;2022-12-08T14:16:37;8.97;;;5.73;;
9997;SDS011;5038;53.064;8.624;2022-12-08T14:19:13;6.50;;;5.33;;
9997;SDS011;5038;53.064;8.624;2022-12-08T14:21:50;6.50;;;5.40;;
9997;SDS011;5038;53.064;8.624;2022-12-08T14:24:20;6.93;;;5.10;;
9997;SDS011;5038;53.064;8.624;2022-12-08T14:26:50;8.20;;;5.67;;
9997;SDS011;5038;53.064;8.624;2022-12-08T14:32:22;7.83;;;5.80;;
9997;SDS011;5038;53.064;8.624;2022-12-08T14:34:53;6.90;;;5.93;;
9997;SDS011;5038;53.064;8.624;2022-12-08T14:37:24;7.17;;;6.40;;
9997;SDS011;5038;53.064;8.624;2022-12-08T14:39:55;9.90;;;6.77;;
9997;SDS011;5038;53.064;8.624;2022-12-08T14:42:27;8.37;;;6.07;;
9997;SDS011;5038;53.064;8.624;2022-12-08T14:45:00;9.03;;;6.00;;
9997;SDS011;5038;53.064;8.624;2022-12-08T14:47:33;8.30;;;5.70;;
9997;SDS011;5038;53.064;8.624;2022-12-08T14:50:02;7.70;;;5.93;;
9997;SDS011;5038;53.064;8.624;2022-12-08T14:52:52;9.70;;;6.37;;
9997;SDS011;5038;53.064;8.624;2022-12-08T14:55:20;8.20;;;6.87;;
9997;SDS011;5038;53.064;8.624;2022-12-08T14:57:48;10.37;;;7.70;;
9997;SDS011;5038;53.064;8.624;2022-12-08T15:00:17;7.93;;;7.13;;
9997;SDS011;5038;53.064;8.624;2022-12-08T15:02:48;10.27;;;9.13;;
9997;SDS011;5038;53.064;8.624;2022-12-08T15:05:18;10.40;;;9.30;;
9997;SDS011;5038;53.064;8.624;2022-12-08T15:07:48;12.73;;;11.43;;
9997;SDS011;5038;53.064;8.624;2022-12-08T15:10:22;12.53;;;10.93;;
9997;SDS011;5038;53.064;8.624;2022-12-08T15:12:57;12.00;;;10.83;;
9997;SDS011;5038;53.064;8.624;2022-12-08T15:15:27;11.40;;;10.30;;
9997;SDS011;5038;53.064;8.624;2022-12-08T15:17:57;10.40;;;9.27;;
9997;SDS011;5038;53.064;8.624;2022-12-08T15:20:31;11.67;;;8.77;;
9997;SDS011;5038;53.064;8.624;2022-12-08T15:25:46;11.60;;;10.40;;
9997;SDS011;5038;53.064;8.624;2022-12-08T15:28:15;10.57;;;9.57;;
9997;SDS011;5038;53.064;8.624;2022-12-08T15:30:48;9.77;;;8.77;;
9997;SDS011;5038;53.064;8.624;2022-12-08T15:33:16;11.27;;;9.50;;
9997;SDS011;5038;53.064;8.624;2022-12-08T15:35:45;9.47;;;8.47;;
9997;SDS011;5038;53.064;8.624;2022-12-08T15:38:18;9.37;;;8.33;;
9997;SDS011;5038;53.064;8.624;2022-12-08T15:40:51;10.43;;;8.63;;
9997;SDS011;5038;53.064;8.624;2022-12-08T15:43:20;13.40;;;9.37;;
9997;SDS011;5038;53.064;8.624;2022-12-08T15:45:48;10.43;;;9.20;;
9997;SDS011;5038;53.064;8.624;2022-12-08T15:48:25;11.47;;;10.27;;
9997;SDS011;5038;53.064;8.624;2022-12-08T15:50:55;11.77;;;10.50;;
9997;SDS011;5038;53.064;8.624;2022-12-08T15:53:23;12.60;;;11.40;;
9997;SDS011;5038;53.064;8.624;2022-12-08T15:55:53;11.53;;;10.43;;
9997;SDS011;5038;53.064;8.624;2022-12-08T15:58:41;12.47;;;11.27;;
9997;SDS011;5038;53.064;8.624;2022-12-08T16:01:19;13.20;;;11.10;;
9997;SDS011;5038;53.064;8.624;2022-12-08T16:03:47;12.73;;;11.43;;
9997;SDS011;5038;53.064;8.624;2022-12-08T16:06:35;14.40;;;13.03;;
9997;SDS011;5038;53.064;8.624;2022-12-08T16:09:25;13.90;;;12.60;;
9997;SDS011;5038;53.064;8.624;2022-12-08T16:11:58;13.00;;;11.80;;
9997;SDS011;5038;53.064;8.624;2022-12-08T16:14:47;13.10;;;11.80;;
9997;SDS011;5038;53.064;8.624;2022-12-08T16:17:35;13.17;;;11.77;;